Terminal Aerodrome Forecast
Issued by NWS

Home | Current Version | Previous Version | Text Only | Print | Product List | Glossary Off
Versions: 1 2 3 4 5 6 7 8 9 10 11 12 13 14 15 16

000
FTUS43 KBIS 200532
TAFMOT
TAF
KMOT 200532Z 2006/2106 25011KT P6SM BKN150
     FM201000 26008KT P6SM SKC
     FM210000 26005KT P6SM FEW300=

USA.gov is the U.S. government's official web portal to all federal, state and local government web resources and services.